createdAt,value
2022-08-16T00:01:02.085Z,99677.34
2022-08-16T00:03:37.734Z,99683.19
2022-08-16T00:06:06.209Z,99676.91
2022-08-16T00:08:37.319Z,99683.88
2022-08-16T00:11:15.593Z,99666.34
2022-08-16T00:13:53.699Z,99679.16
2022-08-16T00:17:01.302Z,99668.03
2022-08-16T00:19:41.689Z,99683.41
2022-08-16T00:22:13.743Z,99683.44
2022-08-16T00:24:46.764Z,99700.31
2022-08-16T00:27:17.390Z,99692.00
2022-08-16T00:29:47.099Z,99693.41
2022-08-16T00:32:18.110Z,99693.63
2022-08-16T00:34:52.477Z,99698.06
2022-08-16T00:37:57.200Z,99692.91
2022-08-16T00:40:33.446Z,99690.66
2022-08-16T00:43:19.119Z,99693.69
2022-08-16T00:46:32.975Z,99694.16
2022-08-16T00:49:17.298Z,99696.63
2022-08-16T00:51:54.836Z,99691.47
2022-08-16T00:54:27.891Z,99681.94
2022-08-16T00:57:00.154Z,99694.81
2022-08-16T00:59:35.625Z,99684.53
2022-08-16T01:02:30.896Z,99699.94
2022-08-16T01:05:10.402Z,99699.69
2022-08-16T01:07:51.193Z,99701.72
2022-08-16T01:10:31.564Z,99705.84
2022-08-16T01:13:21.388Z,99700.47
2022-08-16T01:16:11.307Z,99691.59
2022-08-16T01:18:59.613Z,99692.63
2022-08-16T01:21:39.896Z,99710.31
2022-08-16T01:24:51.835Z,99707.59
2022-08-16T01:27:19.934Z,99690.91
2022-08-16T01:30:19.685Z,99696.59
2022-08-16T01:33:02.137Z,99688.91
2022-08-16T01:35:53.399Z,99697.75
2022-08-16T01:38:28.247Z,99697.03
2022-08-16T01:41:08.731Z,99696.47
2022-08-16T01:43:45.670Z,99703.13
2022-08-16T01:46:39.338Z,99703.34
2022-08-16T01:49:45.776Z,99711.22
2022-08-16T01:52:30.204Z,99706.25
2022-08-16T01:55:20.957Z,99707.38
2022-08-16T01:57:53.573Z,99716.50
2022-08-16T02:00:29.218Z,99707.25
2022-08-16T02:03:00.053Z,99710.41
2022-08-16T02:05:30.751Z,99706.84
2022-08-16T02:08:03.509Z,99704.84
2022-08-16T02:10:34.132Z,99704.81
2022-08-16T02:13:08.544Z,99696.56
2022-08-16T02:15:43.816Z,99684.75
2022-08-16T02:18:18.601Z,99684.47
2022-08-16T02:20:53.522Z,99697.00
2022-08-16T02:23:24.214Z,99683.59
2022-08-16T02:25:54.693Z,99693.03
2022-08-16T02:28:28.008Z,99696.56
2022-08-16T02:31:06.576Z,99704.41
2022-08-16T02:33:43.852Z,99697.13
2022-08-16T02:36:47.449Z,99698.97
2022-08-16T02:39:23.134Z,99697.13
2022-08-16T02:41:55.714Z,99693.44
2022-08-16T02:44:27.064Z,99696.16
2022-08-16T02:46:59.745Z,99689.88
2022-08-16T02:49:58.533Z,99692.13
2022-08-16T02:52:29.488Z,99688.03
2022-08-16T02:55:07.165Z,99682.31
2022-08-16T02:57:37.447Z,99685.16
2022-08-16T03:00:33.838Z,99680.88
2022-08-16T03:03:03.417Z,99665.78
2022-08-16T03:05:32.719Z,99673.63
2022-08-16T03:08:03.090Z,99671.03
2022-08-16T03:10:37.001Z,99672.78
2022-08-16T03:13:12.384Z,99662.06
2022-08-16T03:15:46.673Z,99662.91
2022-08-16T03:18:19.092Z,99660.22
2022-08-16T03:21:04.017Z,99668.75
2022-08-16T03:23:37.119Z,99655.94
2022-08-16T03:26:06.234Z,99656.59
2022-08-16T03:28:34.679Z,99666.56
2022-08-16T03:31:05.337Z,99667.88
2022-08-16T03:33:35.378Z,99661.00
2022-08-16T03:36:30.918Z,99662.31
2022-08-16T03:38:58.751Z,99666.84
2022-08-16T03:41:29.450Z,99651.56
2022-08-16T03:44:43.635Z,99674.06
2022-08-16T03:47:04.835Z,99672.66
2022-08-16T03:49:38.520Z,99664.56
2022-08-16T03:52:08.273Z,99667.13
2022-08-16T03:54:39.205Z,99669.38
2022-08-16T03:57:22.571Z,99666.66
2022-08-16T03:59:51.081Z,99683.78
2022-08-16T04:02:22.382Z,99664.56
2022-08-16T04:04:53.919Z,99657.00
2022-08-16T04:07:24.729Z,99673.69
2022-08-16T04:09:54.141Z,99674.16
2022-08-16T04:12:52.211Z,99664.06
2022-08-16T04:15:16.954Z,99673.47
2022-08-16T04:17:58.241Z,99668.75
2022-08-16T04:20:31.190Z,99668.22
2022-08-16T04:23:06.195Z,99657.94
2022-08-16T04:25:36.846Z,99686.16
2022-08-16T04:28:29.714Z,99689.56
2022-08-16T04:30:55.419Z,99680.59
2022-08-16T04:33:27.237Z,99679.06
2022-08-16T04:35:58.537Z,99694.13
2022-08-16T04:38:30.603Z,99685.75
2022-08-16T04:40:59.970Z,99685.56
2022-08-16T04:43:29.401Z,99695.97
2022-08-16T04:46:01.110Z,99695.13
2022-08-16T04:48:36.337Z,99699.53
2022-08-16T04:51:12.721Z,99684.56
2022-08-16T04:53:51.911Z,99702.53
2022-08-16T04:56:21.357Z,99705.81
2022-08-16T04:58:52.320Z,99695.56
2022-08-16T05:01:59.035Z,99709.09
2022-08-16T05:04:19.277Z,99700.13
2022-08-16T05:06:49.070Z,99709.53
2022-08-16T05:09:42.792Z,99716.94
2022-08-16T05:12:22.186Z,99710.13
2022-08-16T05:15:02.765Z,99718.50
2022-08-16T05:17:33.398Z,99719.94
2022-08-16T05:20:38.448Z,99714.38
2022-08-16T05:22:57.922Z,99720.56
2022-08-16T05:25:47.813Z,99724.81
2022-08-16T05:28:18.974Z,99731.50
2022-08-16T05:30:57.671Z,99731.22
2022-08-16T05:33:30.041Z,99732.75
2022-08-16T05:36:21.048Z,99720.50
2022-08-16T05:39:13.781Z,99737.03
2022-08-16T05:41:45.988Z,99734.03
2022-08-16T05:44:23.160Z,99740.75
2022-08-16T05:47:00.141Z,99733.03
2022-08-16T05:49:38.628Z,99736.00
2022-08-16T05:52:20.905Z,99725.72
2022-08-16T05:55:01.108Z,99723.00
2022-08-16T05:57:35.523Z,99733.53
2022-08-16T06:00:11.625Z,99729.09
2022-08-16T06:02:45.214Z,99725.22
2022-08-16T06:05:36.064Z,99738.19
2022-08-16T06:08:06.444Z,99735.28
2022-08-16T06:10:40.756Z,99730.94
2022-08-16T06:13:32.726Z,99739.94
2022-08-16T06:16:02.105Z,99734.28
2022-08-16T06:18:31.141Z,99732.69
2022-08-16T06:21:00.819Z,99734.66
2022-08-16T06:23:32.285Z,99746.59
2022-08-16T06:26:07.743Z,99749.81
2022-08-16T06:28:42.187Z,99751.34
2022-08-16T06:31:24.916Z,99746.16
2022-08-16T06:33:55.329Z,99754.53
2022-08-16T06:36:26.746Z,99767.50
2022-08-16T06:39:18.315Z,99752.53
2022-08-16T06:41:57.017Z,99757.53
2022-08-16T06:44:43.526Z,99762.84
2022-08-16T06:47:53.270Z,99753.78
2022-08-16T06:50:28.606Z,99760.00
2022-08-16T06:53:06.837Z,99750.44
2022-08-16T06:56:02.621Z,99757.16
2022-08-16T06:58:41.894Z,99759.41
2022-08-16T07:01:18.323Z,99757.22
2022-08-16T07:03:55.775Z,99758.94
2022-08-16T07:06:27.399Z,99761.31
2022-08-16T07:09:09.753Z,99762.56
2022-08-16T07:11:46.200Z,99755.25
2022-08-16T07:14:27.357Z,99764.19
2022-08-16T07:17:00.688Z,99765.25
2022-08-16T07:20:03.107Z,99764.28
2022-08-16T07:22:38.178Z,99756.97
2022-08-16T07:25:16.999Z,99759.41
2022-08-16T07:27:47.107Z,99760.97
2022-08-16T07:30:38.168Z,99759.28
2022-08-16T07:33:10.735Z,99761.88
2022-08-16T07:35:49.498Z,99758.00
2022-08-16T07:38:20.260Z,99767.19
2022-08-16T07:41:10.098Z,99765.03
2022-08-16T07:43:47.580Z,99760.47
2022-08-16T07:46:38.972Z,99759.63
2022-08-16T07:49:12.941Z,99746.72
2022-08-16T07:51:43.035Z,99761.06
2022-08-16T07:54:20.698Z,99766.00
2022-08-16T07:56:54.439Z,99762.78
2022-08-16T07:59:26.904Z,99767.72
2022-08-16T08:02:20.181Z,99764.66
2022-08-16T08:04:54.215Z,99768.97
2022-08-16T08:07:27.602Z,99771.72
2022-08-16T08:09:58.626Z,99771.38
2022-08-16T08:12:31.274Z,99764.56
2022-08-16T08:15:09.704Z,99779.75
2022-08-16T08:17:42.623Z,99784.50
2022-08-16T08:20:26.524Z,99777.50
2022-08-16T08:23:01.608Z,99788.94
2022-08-16T08:26:00.148Z,99788.56
2022-08-16T08:28:31.981Z,99784.78
2022-08-16T08:31:05.174Z,99777.25
2022-08-16T08:33:39.973Z,99778.06
2022-08-16T08:36:22.034Z,99778.38
2022-08-16T08:38:53.555Z,99773.41
2022-08-16T08:41:28.385Z,99769.53
2022-08-16T08:43:58.627Z,99785.38
2022-08-16T08:46:27.473Z,99776.53
2022-08-16T08:48:59.275Z,99774.97
2022-08-16T08:51:31.967Z,99777.69
2022-08-16T08:54:09.740Z,99778.47
2022-08-16T08:56:45.730Z,99786.84
2022-08-16T08:59:34.155Z,99786.63
2022-08-16T09:02:19.527Z,99792.94
2022-08-16T09:04:53.938Z,99794.31
2022-08-16T09:07:25.386Z,99780.59
2022-08-16T09:10:06.241Z,99795.78
2022-08-16T09:12:40.766Z,99781.75
2022-08-16T09:15:24.047Z,99790.19
2022-08-16T09:17:55.809Z,99792.50
2022-08-16T09:20:30.396Z,99788.69
2022-08-16T09:22:59.939Z,99786.25
2022-08-16T09:25:33.810Z,99794.19
2022-08-16T09:28:08.901Z,99788.22
2022-08-16T09:30:43.401Z,99778.13
2022-08-16T09:33:19.989Z,99787.31
2022-08-16T09:35:53.013Z,99775.88
2022-08-16T09:38:31.902Z,99783.47
2022-08-16T09:41:14.424Z,99782.81
2022-08-16T09:43:59.178Z,99768.78
2022-08-16T09:46:45.814Z,99781.16
2022-08-16T09:49:20.203Z,99779.38
2022-08-16T09:51:53.768Z,99785.06
2022-08-16T09:54:23.964Z,99786.47
2022-08-16T09:56:54.314Z,99778.38
2022-08-16T09:59:25.508Z,99772.78
2022-08-16T10:02:00.601Z,99773.19
2022-08-16T10:04:54.375Z,99768.53
2022-08-16T10:07:44.341Z,99774.78
2022-08-16T10:10:19.180Z,99772.22
2022-08-16T10:13:16.651Z,99781.00
2022-08-16T10:15:54.994Z,99786.41
2022-08-16T10:18:41.281Z,99779.31
2022-08-16T10:21:18.023Z,99776.47
2022-08-16T10:23:48.656Z,99786.19
2022-08-16T10:27:18.899Z,99774.41
2022-08-16T10:29:20.103Z,99771.19
2022-08-16T10:31:53.166Z,99767.88
2022-08-16T10:34:31.636Z,99768.44
2022-08-16T10:37:02.205Z,99762.19
2022-08-16T10:39:40.608Z,99766.25
2022-08-16T10:42:13.516Z,99766.00
2022-08-16T10:44:54.569Z,99767.56
2022-08-16T10:47:23.326Z,99776.94
2022-08-16T10:49:51.997Z,99775.69
2022-08-16T10:52:21.417Z,99778.22
2022-08-16T10:54:59.195Z,99764.25
2022-08-16T10:57:32.807Z,99759.50
2022-08-16T11:00:01.505Z,99770.53
2022-08-16T11:02:59.224Z,99759.13
2022-08-16T11:05:17.782Z,99772.31
2022-08-16T11:08:05.432Z,99770.88
2022-08-16T11:11:05.432Z,99773.44
2022-08-16T11:17:01.972Z,99771.66
2022-08-16T11:19:12.484Z,99770.19
2022-08-16T11:24:41.852Z,99765.69
2022-08-16T11:27:23.031Z,99766.78
2022-08-16T11:29:56.989Z,99774.91
2022-08-16T11:32:32.248Z,99761.22
2022-08-16T11:35:16.117Z,99771.97
2022-08-16T11:38:47.604Z,99767.81
2022-08-16T11:41:14.486Z,99770.00
2022-08-16T11:43:42.620Z,99772.19
2022-08-16T11:46:45.160Z,99768.44
2022-08-16T11:49:09.897Z,99758.94
2022-08-16T11:51:44.321Z,99760.34
2022-08-16T11:54:21.241Z,99753.19
2022-08-16T11:56:56.590Z,99753.66
2022-08-16T11:59:29.525Z,99752.22
2022-08-16T12:01:59.762Z,99754.78
2022-08-16T12:04:29.235Z,99751.19
2022-08-16T12:06:58.965Z,99749.69
2022-08-16T12:09:30.287Z,99744.66
2022-08-16T12:11:58.649Z,99729.50
2022-08-16T12:14:35.261Z,99739.47
2022-08-16T12:17:06.553Z,99740.16
2022-08-16T12:19:38.048Z,99746.50
2022-08-16T12:22:19.740Z,99733.19
2022-08-16T12:24:51.149Z,99747.16
2022-08-16T12:27:25.190Z,99738.91
2022-08-16T12:29:54.554Z,99738.25
2022-08-16T12:32:39.375Z,99738.47
2022-08-16T12:35:17.100Z,99732.28
2022-08-16T12:37:49.900Z,99742.66
2022-08-16T12:40:32.621Z,99733.13
2022-08-16T12:43:05.197Z,99738.34
2022-08-16T12:45:41.699Z,99734.94
2022-08-16T12:48:34.461Z,99724.75
2022-08-16T12:51:19.459Z,99725.97
2022-08-16T12:53:53.631Z,99727.88
2022-08-16T12:56:26.886Z,99725.34
2022-08-16T12:58:57.696Z,99717.94
2022-08-16T13:01:33.415Z,99717.72
2022-08-16T13:04:12.367Z,99720.47
2022-08-16T13:06:50.202Z,99734.63
2022-08-16T13:09:26.761Z,99707.09
2022-08-16T13:12:16.339Z,99720.47
2022-08-16T13:14:45.747Z,99722.13
2022-08-16T13:17:23.599Z,99710.28
2022-08-16T13:20:11.251Z,99711.91
2022-08-16T13:22:52.100Z,99717.69
2022-08-16T13:25:25.449Z,99709.84
2022-08-16T13:28:14.651Z,99700.59
2022-08-16T13:30:52.495Z,99687.50
2022-08-16T13:33:30.567Z,99693.75
2022-08-16T13:36:00.985Z,99687.78
2022-08-16T13:38:36.955Z,99682.69
2022-08-16T13:41:11.470Z,99689.44
2022-08-16T13:43:41.898Z,99695.34
2022-08-16T13:46:11.093Z,99685.59
2022-08-16T13:48:44.764Z,99690.69
2022-08-16T13:51:19.287Z,99687.28
2022-08-16T13:53:58.334Z,99686.50
2022-08-16T13:56:37.445Z,99681.84
2022-08-16T13:59:20.223Z,99678.09
2022-08-16T14:01:55.367Z,99676.03
2022-08-16T14:04:31.247Z,99675.81
2022-08-16T14:07:04.143Z,99654.44
2022-08-16T14:09:36.883Z,99671.00
2022-08-16T14:12:19.668Z,99673.13
2022-08-16T14:14:56.385Z,99675.88
2022-08-16T14:17:27.793Z,99675.72
2022-08-16T14:19:59.596Z,99667.47
2022-08-16T14:22:39.711Z,99661.97
2022-08-16T14:25:20.022Z,99663.72
2022-08-16T14:27:52.477Z,99657.97
2022-08-16T14:30:23.791Z,99663.09
2022-08-16T14:32:53.323Z,99646.97
2022-08-16T14:35:29.308Z,99645.97
2022-08-16T14:38:05.862Z,99656.97
2022-08-16T14:40:35.686Z,99656.97
2022-08-16T14:43:05.573Z,99656.13
2022-08-16T14:45:36.856Z,99654.03
2022-08-16T14:48:05.854Z,99663.34
2022-08-16T14:50:34.190Z,99658.28
2022-08-16T14:53:09.468Z,99649.41
2022-08-16T14:55:41.121Z,99651.94
2022-08-16T14:58:19.351Z,99653.00
2022-08-16T15:00:50.283Z,99654.91
2022-08-16T15:03:22.407Z,99653.19
2022-08-16T15:05:54.013Z,99655.75
2022-08-16T15:08:37.176Z,99645.16
2022-08-16T15:11:09.610Z,99640.72
2022-08-16T15:13:37.549Z,99648.75
2022-08-16T15:16:07.660Z,99639.03
2022-08-16T15:18:36.517Z,99656.81
2022-08-16T15:21:08.419Z,99648.56
2022-08-16T15:23:40.511Z,99648.09
2022-08-16T15:26:11.107Z,99644.75
2022-08-16T15:28:50.038Z,99657.44
2022-08-16T15:31:19.516Z,99652.78
2022-08-16T15:33:56.617Z,99648.09
2022-08-16T15:36:26.904Z,99642.63
2022-08-16T15:39:06.833Z,99644.09
2022-08-16T15:41:47.031Z,99654.47
2022-08-16T15:44:23.767Z,99649.38
2022-08-16T15:46:58.740Z,99628.22
2022-08-16T15:49:36.969Z,99659.34
2022-08-16T15:52:12.768Z,99647.06
2022-08-16T15:54:52.493Z,99648.34
2022-08-16T15:57:36.996Z,99652.13
2022-08-16T16:00:14.912Z,99651.50
2022-08-16T16:02:45.192Z,99637.09
2022-08-16T16:05:14.209Z,99645.78
2022-08-16T16:07:56.950Z,99629.91
2022-08-16T16:10:31.390Z,99649.81
2022-08-16T16:13:01.858Z,99644.72
2022-08-16T16:15:39.227Z,99651.50
2022-08-16T16:18:09.842Z,99628.41
2022-08-16T16:20:47.492Z,99633.50
2022-08-16T16:23:24.709Z,99637.94
2022-08-16T16:25:55.212Z,99642.38
2022-08-16T16:29:06.347Z,99634.34
2022-08-16T16:31:19.014Z,99641.31
2022-08-16T16:33:52.695Z,99637.72
2022-08-16T16:36:28.730Z,99644.28
2022-08-16T16:38:58.443Z,99648.28
2022-08-16T16:41:30.405Z,99640.03
2022-08-16T16:44:01.203Z,99636.66
2022-08-16T16:46:43.249Z,99641.94
2022-08-16T16:49:14.646Z,99623.78
2022-08-16T16:51:44.917Z,99616.31
2022-08-16T16:54:27.753Z,99638.97
2022-08-16T16:56:58.476Z,99635.59
2022-08-16T16:59:28.065Z,99633.63
2022-08-16T17:02:39.303Z,99640.41
2022-08-16T17:04:49.186Z,99621.97
2022-08-16T17:07:17.737Z,99615.84
2022-08-16T17:09:53.824Z,99623.03
2022-08-16T17:12:25.172Z,99623.25
2022-08-16T17:15:10.681Z,99621.97
2022-08-16T17:17:59.843Z,99634.88
2022-08-16T17:20:27.613Z,99637.41
2022-08-16T17:22:57.074Z,99621.94
2022-08-16T17:25:27.438Z,99634.84
2022-08-16T17:29:00.081Z,99634.41
2022-08-16T17:30:59.560Z,99621.47
2022-08-16T17:33:37.318Z,99631.22
2022-08-16T17:36:52.686Z,99639.38
2022-08-16T17:39:25.259Z,99638.28
2022-08-16T17:41:54.167Z,99628.53
2022-08-16T17:44:24.644Z,99637.63
2022-08-16T17:46:53.541Z,99634.22
2022-08-16T17:49:24.261Z,99635.47
2022-08-16T17:51:52.871Z,99627.66
2022-08-16T17:54:30.645Z,99640.84
2022-08-16T17:57:00.844Z,99639.78
2022-08-16T17:59:30.534Z,99640.22
2022-08-16T18:01:59.549Z,99642.69
2022-08-16T18:04:48.358Z,99629.50
2022-08-16T18:07:16.382Z,99641.97
2022-08-16T18:09:44.501Z,99638.75
2022-08-16T18:12:41.622Z,99641.44
2022-08-16T18:15:11.506Z,99649.84
2022-08-16T18:17:40.337Z,99642.78
2022-08-16T18:20:30.534Z,99644.66
2022-08-16T18:23:09.032Z,99652.97
2022-08-16T18:25:47.346Z,99645.28
2022-08-16T18:28:16.490Z,99647.94
2022-08-16T18:30:50.932Z,99644.94
2022-08-16T18:33:22.417Z,99635.81
2022-08-16T18:35:57.435Z,99644.84
2022-08-16T18:38:26.799Z,99642.22
2022-08-16T18:40:55.745Z,99639.56
2022-08-16T18:44:23.247Z,99648.34
2022-08-16T18:46:11.961Z,99647.34
2022-08-16T18:48:40.220Z,99646.06
2022-08-16T18:51:13.041Z,99639.00
2022-08-16T18:53:44.439Z,99651.38
2022-08-16T18:56:12.833Z,99645.72
2022-08-16T18:58:42.001Z,99654.19
2022-08-16T19:01:09.913Z,99639.00
2022-08-16T19:03:38.876Z,99657.69
2022-08-16T19:06:13.535Z,99659.00
2022-08-16T19:08:44.609Z,99660.78
2022-08-16T19:11:23.501Z,99662.59
2022-08-16T19:13:52.582Z,99668.09
2022-08-16T19:16:23.162Z,99665.06
2022-08-16T19:18:54.289Z,99660.53
2022-08-16T19:21:22.464Z,99655.88
2022-08-16T19:23:50.824Z,99668.97
2022-08-16T19:26:24.544Z,99670.00
2022-08-16T19:28:59.089Z,99672.03
2022-08-16T19:31:34.255Z,99682.47
2022-08-16T19:34:04.489Z,99678.97
2022-08-16T19:36:37.975Z,99674.09
2022-08-16T19:39:15.207Z,99676.50
2022-08-16T19:41:50.575Z,99677.56
2022-08-16T19:44:23.619Z,99693.13
2022-08-16T19:46:52.273Z,99694.06
2022-08-16T19:49:20.630Z,99681.81
2022-08-16T19:51:49.389Z,99693.22
2022-08-16T19:54:17.821Z,99687.63
2022-08-16T19:56:45.706Z,99692.59
2022-08-16T19:59:39.720Z,99689.69
2022-08-16T20:02:03.041Z,99690.94
2022-08-16T20:04:31.684Z,99701.34
2022-08-16T20:07:01.890Z,99704.97
2022-08-16T20:09:30.596Z,99698.38
2022-08-16T20:11:59.252Z,99699.94
2022-08-16T20:14:27.586Z,99709.84
2022-08-16T20:16:58.573Z,99711.56
2022-08-16T20:19:36.091Z,99706.94
2022-08-16T20:22:52.547Z,99718.38
2022-08-16T20:25:28.718Z,99714.97
2022-08-16T20:27:58.060Z,99701.69
2022-08-16T20:30:27.335Z,99712.91
2022-08-16T20:32:55.548Z,99708.50
2022-08-16T20:35:28.286Z,99693.53
2022-08-16T20:37:56.806Z,99720.59
2022-08-16T20:40:34.639Z,99715.00
2022-08-16T20:43:14.533Z,99719.94
2022-08-16T20:45:46.686Z,99728.78
2022-08-16T20:48:16.050Z,99728.75
2022-08-16T20:50:45.261Z,99719.03
2022-08-16T20:53:13.443Z,99735.53
2022-08-16T20:55:41.807Z,99720.53
2022-08-16T20:58:09.972Z,99731.44
2022-08-16T21:00:38.470Z,99735.50
2022-08-16T21:03:10.754Z,99729.22
2022-08-16T21:05:39.259Z,99730.75
2022-08-16T21:08:50.431Z,99705.03
2022-08-16T21:10:56.870Z,99700.06
2022-08-16T21:13:25.761Z,99707.56
2022-08-16T21:15:54.617Z,99728.00
2022-08-16T21:18:23.758Z,99723.91
2022-08-16T21:20:52.524Z,99722.88
2022-08-16T21:23:21.477Z,99717.19
2022-08-16T21:25:58.955Z,99730.50
2022-08-16T21:28:38.796Z,99720.91
2022-08-16T21:31:13.085Z,99713.22
2022-08-16T21:33:43.264Z,99715.59
2022-08-16T21:36:13.183Z,99713.91
2022-08-16T21:38:41.547Z,99712.66
2022-08-16T21:41:13.372Z,99703.63
2022-08-16T21:43:41.933Z,99717.91
2022-08-16T21:46:10.752Z,99728.25
2022-08-16T21:48:43.657Z,99711.00
2022-08-16T21:51:16.348Z,99728.06
2022-08-16T21:53:44.598Z,99736.19
2022-08-16T21:56:18.640Z,99721.34
2022-08-16T21:58:52.804Z,99731.00
2022-08-16T22:01:23.694Z,99723.97
2022-08-16T22:04:01.479Z,99729.66
2022-08-16T22:06:42.833Z,99724.72
2022-08-16T22:09:15.333Z,99733.72
2022-08-16T22:11:44.873Z,99738.59
2022-08-16T22:14:13.535Z,99743.00
2022-08-16T22:16:42.226Z,99743.00
2022-08-16T22:19:11.547Z,99753.00
2022-08-16T22:21:39.466Z,99749.75
2022-08-16T22:24:08.238Z,99753.78
2022-08-16T22:26:43.312Z,99745.25
2022-08-16T22:29:15.223Z,99741.31
2022-08-16T22:31:44.287Z,99736.34
2022-08-16T22:34:14.441Z,99725.34
2022-08-16T22:36:43.954Z,99737.25
2022-08-16T22:39:14.145Z,99738.94
2022-08-16T22:41:45.706Z,99721.88
2022-08-16T22:44:14.626Z,99731.19
2022-08-16T22:46:43.222Z,99735.06
2022-08-16T22:49:13.005Z,99735.84
2022-08-16T22:51:44.236Z,99736.84
2022-08-16T22:54:34.207Z,99740.91
2022-08-16T22:57:02.508Z,99744.38
2022-08-16T22:59:32.041Z,99738.09
2022-08-16T23:02:04.551Z,99748.41
2022-08-16T23:04:34.099Z,99748.69
2022-08-16T23:07:05.426Z,99742.72
2022-08-16T23:09:33.735Z,99747.84
2022-08-16T23:12:06.131Z,99759.22
2022-08-16T23:14:34.436Z,99747.50
2022-08-16T23:17:02.542Z,99745.97
2022-08-16T23:19:30.861Z,99742.41
2022-08-16T23:22:00.721Z,99736.53
2022-08-16T23:24:28.928Z,99738.13
2022-08-16T23:26:57.265Z,99738.41
2022-08-16T23:29:26.547Z,99737.84
2022-08-16T23:32:08.433Z,99724.03
2022-08-16T23:34:36.711Z,99723.31
2022-08-16T23:37:04.674Z,99721.34
2022-08-16T23:39:33.112Z,99732.41
2022-08-16T23:42:12.084Z,99717.00
2022-08-16T23:44:56.519Z,99731.69
2022-08-16T23:47:27.653Z,99726.25
2022-08-16T23:50:02.540Z,99720.81
2022-08-16T23:52:53.917Z,99723.44
2022-08-16T23:55:20.491Z,99721.47
2022-08-16T23:57:50.236Z,99717.34
